Anchorage, Alaska
Current Conditions -  °F | °C
As of 4:36 PM on Monday 20 Oct 2014 (Local Time) from PANC Reporting Station
Broken Clouds Broken Clouds  
Wind Chill: 37°   Ceiling: 2800
Heat Index: 37°   Visibility: 10mi
Dew Point: 34°   Wind: 0mph
Humidity: 87%   Direction: NA
Pressure: 29.1"   Gusts: NA
Location:  61.16°N, 150.01°W
Report Text: PANC 210036Z 00000KT 10SM FEW006 BKN028 BKN070 03/01 A2910 RMK AO2
Loading
Personal Weather Stations






























Interactive Weather Map
Tropical Storm Tracking
New forecast layout! Learn more

10-Day Weather Forecast

Advertisements
Track Severe Weather on mobile